^^
MeteoGriva-Weather Station Historical Data
Daily Summary for August 8, 2020 Units:  English    Metric   Both
Daily Weekly Monthly Yearly Custom
  High: Low: Average:
Temperature: 46.6 °F 30.7 °F 37.4 °F
Dew Point: 23.2 °F 7.9 °F 16.3 °F
Humidity: 54.9% 32.2% 42%
Wind Speed: 2.3mph 0mph 0.1mph
Wind Gust: 10.1mph - -
Wind- - SSE
Pressure: 30.4 in 30.3 in -
Precipitation: 0 in    
Historical Graphs
 
 
Tabular Data for August 8, 2020
Time Temperature Dew Point Pressure Wind Wind Speed Wind Gust Humidity Rainfall Rate (Hourly) solar
00:04 35.2 °F 9.7 °F 30.3 in Calm     34% 0 in 0 W/m2
00:09 35.2 °F 9.7 °F 30.3 in Calm     34% 0 in 0 W/m2
00:14 35.1 °F 10 °F 30.3 in Calm     34.7% 0 in 0 W/m2
00:19 35.1 °F 9.5 °F 30.3 in Calm     34% 0 in 0 W/m2
00:24 35.2 °F 9.7 °F 30.3 in Calm     34% 0 in 0 W/m2
00:29 35.2 °F 9.7 °F 30.3 in West 0.1 mph 2.5 mph 34% 0 in 0 W/m2
00:34 35.1 °F 9.5 °F 30.3 in Calm     34% 0 in 0 W/m2
00:39 35.1 °F 9.1 °F 30.3 in Calm     33.6% 0 in 0 W/m2
00:44 35.2 °F 8.6 °F 30.3 in Calm     32.6% 0 in 0 W/m2
00:49 35.2 °F 8.4 °F 30.3 in Calm     32.2% 0 in 0 W/m2
00:54 35.1 °F 8.8 °F 30.3 in Calm     33% 0 in 0 W/m2
00:59 35.2 °F 8.6 °F 30.3 in Calm     32.6% 0 in 0 W/m2
01:04 35.2 °F 8.6 °F 30.3 in Calm     32.6% 0 in 0 W/m2
01:09 34.9 °F 9.1 °F 30.3 in Calm     33.7% 0 in 0 W/m2
01:14 34 °F 8.6 °F 30.3 in Calm     33.9% 0 in 0 W/m2
01:19 34.2 °F 8.1 °F 30.3 in Calm     33% 0 in 0 W/m2
01:24 34.3 °F 8.2 °F 30.3 in Calm     33% 0 in 0 W/m2
01:29 34.5 °F 8.4 °F 30.3 in Calm     33% 0 in 0 W/m2
01:34 35.4 °F 8.8 °F 30.3 in Calm     32.7% 0 in 0 W/m2
01:39 35.4 °F 9.1 °F 30.3 in Calm     33% 0 in 0 W/m2
01:44 35.2 °F 9 °F 30.3 in Calm     33% 0 in 0 W/m2
01:49 35.2 °F 9 °F 30.3 in Calm   2.5 mph 33% 0 in 0 W/m2
01:54 34.7 °F 9 °F 30.3 in Calm     33.7% 0 in 0 W/m2
01:59 34.7 °F 9.9 °F 30.3 in Calm     35% 0 in 0 W/m2
02:04 34.3 °F 9.7 °F 30.3 in Calm     35% 0 in 0 W/m2
02:09 34.3 °F 9.1 °F 30.3 in Calm     34.4% 0 in 0 W/m2
02:14 33.8 °F 8.6 °F 30.3 in Calm     34.3% 0 in 0 W/m2
02:19 33.8 °F 8.4 °F 30.3 in Calm     34% 0 in 0 W/m2
02:24 34 °F 7.9 °F 30.3 in Calm     33% 0 in 0 W/m2
02:29 34.2 °F 8.1 °F 30.3 in Calm     33% 0 in 0 W/m2
02:34 34.5 °F 8.4 °F 30.3 in Calm     33% 0 in 0 W/m2
02:39 34.5 °F 8.4 °F 30.3 in Calm     33% 0 in 0 W/m2
02:44 34.5 °F 8.4 °F 30.3 in Calm     33% 0 in 0 W/m2
02:49 34.5 °F 8.4 °F 30.3 in Calm     33% 0 in 0 W/m2
02:54 34.9 °F 8.6 °F 30.3 in Calm     32.9% 0 in 0 W/m2
02:59 34.9 °F 8.6 °F 30.3 in Calm     33.1% 0 in 0 W/m2
03:04 34.7 °F 8.8 °F 30.3 in SSW 0.2 mph 2.5 mph 33.4% 0 in 0 W/m2
03:09 34.5 °F 9.1 °F 30.3 in Calm   2.5 mph 34.2% 0 in 0 W/m2
03:14 34 °F 9.1 °F 30.3 in Calm     34.9% 0 in 0 W/m2
03:19 34 °F 9.1 °F 30.3 in Calm     35% 0 in 0 W/m2
03:24 34 °F 9.1 °F 30.3 in Calm     35% 0 in 0 W/m2
03:29 34 °F 8.6 °F 30.3 in Calm     34% 0 in 0 W/m2
03:34 33.3 °F 9.1 °F 30.3 in Calm     35.9% 0 in 0 W/m2
03:39 33.1 °F 9.7 °F 30.3 in Calm     36.9% 0 in 0 W/m2
03:44 32.9 °F 8.8 °F 30.3 in Calm     36% 0 in 0 W/m2
03:49 32.9 °F 9.3 °F 30.3 in Calm     36.9% 0 in 0 W/m2
03:54 32.4 °F 9.3 °F 30.3 in Calm     37.6% 0 in 0 W/m2
03:59 32.2 °F 8.8 °F 30.3 in Calm     37% 0 in 0 W/m2
04:04 32.4 °F 9 °F 30.3 in Calm     37% 0 in 0 W/m2
04:09 32.4 °F 9.3 °F 30.3 in Calm     37.8% 0 in 0 W/m2
04:14 32.7 °F 9.9 °F 30.3 in Calm     38% 0 in 0 W/m2
04:19 32.7 °F 10.6 °F 30.3 in Calm     39.3% 0 in 0 W/m2
04:24 32.5 °F 10.9 °F 30.3 in Calm     40% 0 in 0 W/m2
04:29 32.5 °F 10 °F 30.3 in Calm     38.4% 0 in 0 W/m2
04:34 32.7 °F 9.3 °F 30.3 in Calm     37% 0 in 0 W/m2
04:39 32.7 °F 9.1 °F 30.3 in Calm     36.7% 0 in 0 W/m2
04:44 32.5 °F 10 °F 30.3 in Calm     38.3% 0 in 0 W/m2
04:49 32.5 °F 9.7 °F 30.3 in Calm     38% 0 in 0 W/m2
04:54 32.7 °F 9.5 °F 30.3 in Calm     37.3% 0 in 0 W/m2
04:59 32.7 °F 9.9 °F 30.3 in Calm     38% 0 in 0 W/m2
05:04 32.7 °F 10.2 °F 30.3 in Calm     38.7% 0 in 0 W/m2
05:09 32.5 °F 10.6 °F 30.3 in Calm     39.4% 0 in 0 W/m2
05:14 31.8 °F 10 °F 30.3 in Calm     39.8% 0 in 0 W/m2
05:19 31.6 °F 10.4 °F 30.3 in Calm     40.6% 0 in 0 W/m2
05:24 31.6 °F 10.6 °F 30.3 in Calm     41% 0 in 0 W/m2
05:29 31.5 °F 10 °F 30.3 in Calm     40.1% 0 in 0 W/m2
05:34 31.8 °F 10 °F 30.3 in Calm     39.7% 0 in 0 W/m2
05:39 32 °F 9.9 °F 30.3 in Calm     39% 0 in 0 W/m2
05:44 32 °F 9.5 °F 30.3 in Calm     38.3% 0 in 0 W/m2
05:49 32 °F 9.5 °F 30.3 in Calm     38.2% 0 in 0 W/m2
05:54 31.6 °F 10.2 °F 30.3 in Calm     40.3% 0 in 0 W/m2
05:59 31.3 °F 10.8 °F 30.3 in Calm     41.9% 0 in 0 W/m2
06:04 31.3 °F 10.6 °F 30.3 in Calm     41.6% 0 in 0 W/m2
06:09 31.3 °F 10.8 °F 30.3 in Calm     42% 0 in 0 W/m2
06:14 31.1 °F 10.6 °F 30.3 in Calm     42% 0 in 0 W/m2
06:19 30.9 °F 10 °F 30.3 in Calm     41.1% 0 in 0 W/m2
06:24 30.9 °F 10.6 °F 30.3 in Calm   2.5 mph 41.9% 0 in 0 W/m2
06:29 31.3 °F 10 °F 30.3 in Calm     40.8% 0 in 0 W/m2
06:34 32.2 °F 10.4 °F 30.3 in Calm     39.8% 0 in 0 W/m2
06:39 32.5 °F 10.4 °F 30.3 in Calm     39% 0 in 0 W/m2
06:44 32.5 °F 10.8 °F 30.3 in Calm     39.8% 0 in 0 W/m2
06:49 32.7 °F 10.4 °F 30.3 in Calm     39.1% 0 in 0 W/m2
06:54 32.9 °F 10.8 °F 30.3 in Calm     39.3% 0 in 0 W/m2
06:59 32.9 °F 11.3 °F 30.3 in Calm     39.9% 0 in 0 W/m2
07:04 32.9 °F 11.1 °F 30.3 in Calm     39.8% 0 in 0 W/m2
07:09 32.9 °F 11.3 °F 30.3 in Calm     40% 0 in 0 W/m2
07:14 32.5 °F 11.3 °F 30.3 in Calm     40.7% 0 in 0 W/m2
07:19 32 °F 11.3 °F 30.3 in Calm     41.7% 0 in 0 W/m2
07:24 32 °F 11.5 °F 30.3 in Calm     42% 0 in 0 W/m2
07:29 32 °F 11.7 °F 30.3 in Calm     42.4% 0 in 0 W/m2
07:34 31.6 °F 11.1 °F 30.3 in Calm     41.8% 0 in 0 W/m2
07:39 31.5 °F 10.8 °F 30.3 in Calm     41.8% 0 in 0 W/m2
07:44 31.5 °F 10.9 °F 30.3 in Calm     41.9% 0 in 0 W/m2
07:49 31.5 °F 11.5 °F 30.3 in Calm     43% 0 in 0 W/m2
07:54 31.3 °F 12 °F 30.3 in Calm     44.3% 0 in 0 W/m2
07:59 31.1 °F 12.4 °F 30.3 in Calm     45.5% 0 in 2 W/m2
08:04 30.9 °F 13.3 °F 30.4 in SSW 0.1 mph 2.5 mph 47.7% 0 in 5 W/m2
08:09 30.7 °F 13.3 °F 30.4 in Calm   2.5 mph 48% 0 in 8 W/m2
08:14 31.1 °F 13.3 °F 30.4 in SW 0.1 mph 4.9 mph 47.2% 0 in 13 W/m2
08:19 31.5 °F 13.1 °F 30.4 in Calm   4.9 mph 46.1% 0 in 19 W/m2
08:24 31.6 °F 12.6 °F 30.4 in Calm     44.8% 0 in 23 W/m2
08:29 32 °F 11.7 °F 30.4 in Calm     42.3% 0 in 28 W/m2
08:34 33.1 °F 12.6 °F 30.4 in Calm     42.1% 0 in 32 W/m2
08:39 34 °F 14 °F 30.4 in Calm     43.4% 0 in 36 W/m2
08:44 34 °F 14.4 °F 30.4 in Calm     44% 0 in 40 W/m2
08:49 34.2 °F 14 °F 30.4 in Calm     43.2% 0 in 44 W/m2
08:54 34.9 °F 14 °F 30.4 in Calm     42% 0 in 48 W/m2
08:59 37 °F 14.9 °F 30.4 in Calm     40% 0 in 52 W/m2
09:04 37.4 °F 15.6 °F 30.4 in Calm     40.7% 0 in 55 W/m2
09:09 37.8 °F 15.3 °F 30.4 in Calm     39.6% 0 in 58 W/m2
09:14 39.2 °F 16 °F 30.4 in Calm     38.7% 0 in 61 W/m2
09:19 41 °F 17.8 °F 30.4 in Calm     38.6% 0 in 63 W/m2
09:24 41 °F 17.8 °F 30.4 in Calm     38.7% 0 in 66 W/m2
09:29 41.2 °F 17.4 °F 30.4 in Calm     37.8% 0 in 68 W/m2
09:34 41.5 °F 17.6 °F 30.4 in Calm     37.6% 0 in 70 W/m2
09:39 41.9 °F 18.1 °F 30.4 in Calm     38.1% 0 in 71 W/m2
09:44 41.4 °F 20.5 °F 30.4 in Calm     43% 0 in 72 W/m2
09:49 40.6 °F 20.8 °F 30.4 in Calm     44.9% 0 in 73 W/m2
09:54 39.6 °F 19.4 °F 30.4 in Calm     44% 0 in 74 W/m2
09:59 38.1 °F 16.9 °F 30.4 in Calm     41.4% 0 in 75 W/m2
10:04 38.5 °F 15.4 °F 30.4 in Calm     39% 0 in 76 W/m2
10:09 38.7 °F 15.3 °F 30.4 in Calm     38.1% 0 in 77 W/m2
10:14 39 °F 16.3 °F 30.4 in Calm     39.2% 0 in 78 W/m2
10:19 39.2 °F 16.9 °F 30.4 in Calm     40% 0 in 78 W/m2
10:24 39.2 °F 17.4 °F 30.4 in Calm     41% 0 in 79 W/m2
10:29 39.2 °F 17.6 °F 30.4 in Calm     41.3% 0 in 79 W/m2
10:34 40.1 °F 18.3 °F 30.4 in Calm     41% 0 in 80 W/m2
10:39 41.9 °F 20.3 °F 30.4 in ESE 0.2 mph 2.5 mph 41.6% 0 in 80 W/m2
10:44 41.9 °F 20.1 °F 30.4 in Calm     41.3% 0 in 80 W/m2
10:49 41.9 °F 19.8 °F 30.4 in Calm     40.6% 0 in 81 W/m2
10:54 41.9 °F 19.9 °F 30.4 in Calm     41% 0 in 81 W/m2
10:59 40.6 °F 19 °F 30.4 in Calm   2.5 mph 41.3% 0 in 82 W/m2
11:04 40.6 °F 19.2 °F 30.4 in Calm     41.9% 0 in 84 W/m2
11:09 40.6 °F 19.2 °F 30.4 in ENE 0.2 mph 2.5 mph 41.6% 0 in 86 W/m2
11:14 40.8 °F 19.4 °F 30.4 in Calm   2.5 mph 41.7% 0 in 88 W/m2
11:19 41.9 °F 19.8 °F 30.4 in Calm     40.8% 0 in 91 W/m2
11:24 41.9 °F 19.6 °F 30.4 in Calm     40.5% 0 in 93 W/m2
11:29 41.9 °F 20.1 °F 30.4 in Calm     41.4% 0 in 96 W/m2
11:34 41.9 °F 19.6 °F 30.4 in North 0.2 mph 4.9 mph 40.7% 0 in 98 W/m2
11:39 41.2 °F 19.6 °F 30.4 in ESE 0.6 mph 4.9 mph 41.8% 0 in 102 W/m2
11:44 41.2 °F 19.8 °F 30.4 in Calm   4.9 mph 42% 0 in 105 W/m2
11:49 41.4 °F 19.6 °F 30.4 in South 0.2 mph 4.9 mph 41.1% 0 in 103 W/m2
11:54 42.1 °F 20.5 °F 30.4 in SSE 0.1 mph 7.6 mph 41.8% 0 in 80 W/m2
11:59 43.7 °F 21.7 °F 30.4 in ESE 1.2 mph 4.9 mph 41.1% 0 in 79 W/m2
12:04 43.7 °F 21.9 °F 30.4 in SE 0.9 mph 4.9 mph 41.7% 0 in 78 W/m2
12:09 43.7 °F 21.7 °F 30.4 in SE 0.3 mph 4.9 mph 41.4% 0 in 77 W/m2
12:14 43.7 °F 21.9 °F 30.4 in SSE 1.3 mph 4.9 mph 41.7% 0 in 92 W/m2
12:19 45 °F 22.6 °F 30.4 in SSE 1.7 mph 7.6 mph 41.1% 0 in 128 W/m2
12:24 45 °F 22.8 °F 30.4 in South 2.3 mph 7.6 mph 41.4% 0 in 147 W/m2
12:29 44.8 °F 22.8 °F 30.4 in SSE 1.2 mph 10.1 mph 41.6% 0 in 154 W/m2
12:34 44.8 °F 22.5 °F 30.4 in South 1.9 mph 7.6 mph 41% 0 in 164 W/m2
12:39 44.4 °F 22.3 °F 30.4 in South 0.1 mph 4.9 mph 41.2% 0 in 172 W/m2
12:44 44.6 °F 22.5 °F 30.4 in SSE 1.5 mph 4.9 mph 41.1% 0 in 183 W/m2
12:49 44.8 °F 22.5 °F 30.4 in SE 0.4 mph 7.6 mph 41% 0 in 195 W/m2
12:54 44.8 °F 22.5 °F 30.4 in SSE 0.7 mph 7.6 mph 41% 0 in 207 W/m2
12:59 45.3 °F 23 °F 30.3 in SSE 0.6 mph 7.6 mph 41% 0 in 218 W/m2
13:04 45.3 °F 23 °F 30.3 in South 0.8 mph 7.6 mph 41% 0 in 229 W/m2
13:09 45.3 °F 23.2 °F 30.3 in SE 0.7 mph 4.9 mph 41.3% 0 in 239 W/m2
13:14 45.1 °F 22.8 °F 30.3 in SSE 0.7 mph 4.9 mph 41% 0 in 250 W/m2
13:19 45.7 °F 22.8 °F 30.3 in SSE 0.2 mph 4.9 mph 40.2% 0 in 260 W/m2
13:24 45.7 °F 22.6 °F 30.3 in South 1.6 mph 7.6 mph 39.7% 0 in 268 W/m2
13:29 45.7 °F 22.3 °F 30.3 in Calm     39.3% 0 in 278 W/m2
13:34 45.7 °F 22.3 °F 30.3 in Calm     39.2% 0 in 286 W/m2
13:39 46.6 °F 22.5 °F 30.3 in NNW 0.2 mph 4.9 mph 38.4% 0 in 289 W/m2
13:44 46.6 °F 21.2 °F 30.3 in Calm   4.9 mph 36.3% 0 in 292 W/m2
13:49 46.2 °F 21.2 °F 30.3 in NNE 1 mph 7.6 mph 36.8% 0 in 295 W/m2
13:54 45.9 °F 21 °F 30.3 in NE 0.2 mph 7.6 mph 37% 0 in 297 W/m2
13:59 45.3 °F 20.7 °F 30.3 in SE 0.4 mph 4.9 mph 37% 0 in 302 W/m2
14:04 45.1 °F 19.9 °F 30.3 in ESE 0.2 mph 4.9 mph 36.1% 0 in 302 W/m2
14:09 45.1 °F 20.5 °F 30.3 in NE 0.4 mph 2.5 mph 37% 0 in 299 W/m2
14:14 45 °F 20.1 °F 30.3 in Calm   4.9 mph 36.7% 0 in 299 W/m2
14:19 45.5 °F 20.1 °F 30.3 in Calm   4.9 mph 36% 0 in 300 W/m2
14:24 45.7 °F 19.8 °F 30.3 in Calm     35.3% 0 in 301 W/m2
14:29 45.7 °F 20.3 °F 30.3 in Calm     36.2% 0 in 297 W/m2
14:34 45.7 °F 20.8 °F 30.3 in NNW 0.1 mph 2.5 mph 37% 0 in 297 W/m2
14:39 44.8 °F 20.5 °F 30.3 in Calm     37.7% 0 in 275 W/m2
14:44 44.6 °F 20.5 °F 30.3 in Calm   2.5 mph 38% 0 in 287 W/m2
14:49 44.6 °F 20.5 °F 30.3 in Calm   2.5 mph 38% 0 in 277 W/m2
14:54 44.4 °F 20.5 °F 30.3 in NE 0.2 mph 2.5 mph 37.9% 0 in 277 W/m2
14:59 44.2 °F 20.3 °F 30.3 in NNE 0.7 mph 4.9 mph 38.2% 0 in 272 W/m2
15:04 44.1 °F 20.5 °F 30.3 in East 0.4 mph 4.9 mph 38.8% 0 in 269 W/m2
15:09 44.1 °F 20.1 °F 30.3 in ENE 1.1 mph 4.9 mph 38% 0 in 265 W/m2
15:14 44.1 °F 20.3 °F 30.3 in Calm   4.9 mph 38.3% 0 in 260 W/m2
15:19 44.8 °F 20.5 °F 30.3 in Calm     37.9% 0 in 255 W/m2
15:24 45 °F 20.3 °F 30.3 in Calm     37% 0 in 249 W/m2
15:29 45 °F 20.5 °F 30.3 in Calm     37.3% 0 in 241 W/m2
15:34 45.3 °F 20.5 °F 30.3 in South 1.1 mph 4.9 mph 36.7% 0 in 239 W/m2
15:39 46 °F 21.7 °F 30.3 in SSE 0.1 mph 4.9 mph 37.7% 0 in 230 W/m2
15:44 46.4 °F 23 °F 30.3 in South 1.4 mph 4.9 mph 39.3% 0 in 222 W/m2
15:49 46.2 °F 23.2 °F 30.3 in SSE 0.4 mph 4.9 mph 40% 0 in 211 W/m2
15:54 46 °F 23.2 °F 30.3 in Calm   2.5 mph 40.3% 0 in 175 W/m2
15:59 44.2 °F 22.5 °F 30.3 in Calm   2.5 mph 41.7% 0 in 40 W/m2
16:04 43.5 °F 22.3 °F 30.3 in Calm     42.7% 0 in 37 W/m2
16:09 43.3 °F 22.3 °F 30.3 in Calm     43% 0 in 34 W/m2
16:14 43 °F 22.5 °F 30.3 in Calm     43.9% 0 in 32 W/m2
16:19 41.9 °F 22.1 °F 30.3 in Calm     45% 0 in 30 W/m2
16:24 41 °F 22.1 °F 30.3 in Calm     46.6% 0 in 28 W/m2
16:29 40.8 °F 22.5 °F 30.3 in Calm     47.6% 0 in 26 W/m2
16:34 40.6 °F 22.8 °F 30.3 in Calm     48.9% 0 in 24 W/m2
16:39 39.6 °F 22.1 °F 30.3 in SW 0.1 mph 2.5 mph 49.2% 0 in 22 W/m2
16:44 38.8 °F 21.7 °F 30.3 in Calm   2.5 mph 50% 0 in 20 W/m2
16:49 38.8 °F 21.7 °F 30.3 in Calm   2.5 mph 50% 0 in 18 W/m2
16:54 38.8 °F 21.7 °F 30.3 in Calm     50% 0 in 14 W/m2
16:59 38.3 °F 21.6 °F 30.3 in Calm     50.7% 0 in 12 W/m2
17:04 37.9 °F 21.6 °F 30.3 in Calm     51.2% 0 in 9 W/m2
17:09 37.9 °F 21.6 °F 30.3 in Calm     51.5% 0 in 6 W/m2
17:14 37.9 °F 21.2 °F 30.3 in Calm     50.4% 0 in 4 W/m2
17:19 37.9 °F 21.2 °F 30.3 in SSW 0.4 mph 2.5 mph 50.6% 0 in 2 W/m2
17:24 37.8 °F 21 °F 30.3 in Calm   2.5 mph 50.6% 0 in 0 W/m2
17:29 37.8 °F 20.8 °F 30.3 in Calm     50% 0 in 0 W/m2
17:34 37.8 °F 20.8 °F 30.3 in Calm     50% 0 in 0 W/m2
17:39 37.9 °F 20.7 °F 30.3 in Calm     49.3% 0 in 0 W/m2
17:44 37.9 °F 21.2 °F 30.3 in Calm     50.5% 0 in 0 W/m2
17:49 37.8 °F 21.7 °F 30.4 in Calm     51.9% 0 in 0 W/m2
17:54 37.8 °F 21.6 °F 30.3 in Calm     52% 0 in 0 W/m2
17:59 37.6 °F 21.2 °F 30.4 in Calm     51.6% 0 in 0 W/m2
18:04 37.4 °F 21 °F 30.4 in Calm     51.2% 0 in 0 W/m2
18:09 37.4 °F 20.3 °F 30.4 in Calm     49.7% 0 in 0 W/m2
18:14 37.6 °F 19.8 °F 30.4 in Calm     48.6% 0 in 0 W/m2
18:19 37.9 °F 20.1 °F 30.4 in Calm     48.1% 0 in 0 W/m2
18:24 38.3 °F 21.2 °F 30.4 in Calm     49.8% 0 in 0 W/m2
18:29 38.1 °F 21.6 °F 30.4 in Calm     51% 0 in 0 W/m2
18:34 37.9 °F 20.8 °F 30.4 in Calm     50% 0 in 0 W/m2
18:39 37.8 °F 20.3 °F 30.4 in Calm     49% 0 in 0 W/m2
18:44 37.6 °F 20.1 °F 30.4 in Calm     49% 0 in 0 W/m2
18:49 37.8 °F 19.4 °F 30.4 in Calm     47.3% 0 in 0 W/m2
18:54 37.8 °F 19 °F 30.4 in Calm     46.4% 0 in 0 W/m2
18:59 37.8 °F 18.9 °F 30.4 in Calm     46% 0 in 0 W/m2
19:04 37.6 °F 18.9 °F 30.4 in Calm     46.3% 0 in 0 W/m2
19:09 37.6 °F 19.2 °F 30.4 in Calm     47% 0 in 0 W/m2
19:14 37.4 °F 19.4 °F 30.4 in Calm     47.6% 0 in 0 W/m2
19:19 37.4 °F 18.7 °F 30.4 in Calm     46.4% 0 in 0 W/m2
19:24 37.4 °F 18.5 °F 30.4 in Calm     46% 0 in 0 W/m2
19:29 37.4 °F 18.1 °F 30.4 in Calm     45.4% 0 in 0 W/m2
19:34 37.4 °F 18.5 °F 30.4 in Calm     45.9% 0 in 0 W/m2
19:39 37.2 °F 18.9 °F 30.4 in Calm     47% 0 in 0 W/m2
19:44 36.7 °F 18.3 °F 30.4 in Calm     47% 0 in 0 W/m2
19:49 36.7 °F 18.9 °F 30.4 in Calm     48% 0 in 0 W/m2
19:54 36.7 °F 18.9 °F 30.4 in Calm     48% 0 in 0 W/m2
19:59 36.7 °F 19 °F 30.4 in Calm     48.3% 0 in 0 W/m2
20:04 37 °F 19 °F 30.4 in Calm     47.6% 0 in 0 W/m2
20:09 37 °F 18.7 °F 30.4 in Calm     47.1% 0 in 0 W/m2
20:14 37 °F 18.9 °F 30.4 in Calm     47.2% 0 in 0 W/m2
20:19 37 °F 19 °F 30.4 in Calm     47.8% 0 in 0 W/m2
20:24 36.9 °F 18.9 °F 30.4 in Calm     47.7% 0 in 0 W/m2
20:29 36.7 °F 18.9 °F 30.4 in Calm     48% 0 in 0 W/m2
20:34 36.7 °F 18.9 °F 30.4 in Calm     48% 0 in 0 W/m2
20:39 36.5 °F 18.9 °F 30.4 in Calm     48.2% 0 in 0 W/m2
20:44 36.1 °F 18.3 °F 30.4 in Calm     48% 0 in 0 W/m2
20:49 36.1 °F 18.3 °F 30.4 in Calm     47.9% 0 in 0 W/m2
20:54 36.5 °F 18.5 °F 30.4 in Calm     47.8% 0 in 0 W/m2
20:59 36.5 °F 19 °F 30.4 in Calm     48.6% 0 in 0 W/m2
21:04 36 °F 19.4 °F 30.4 in Calm     50.8% 0 in 0 W/m2
21:09 36 °F 19.2 °F 30.4 in Calm     50.4% 0 in 0 W/m2
21:14 36 °F 18.9 °F 30.4 in Calm     49.6% 0 in 0 W/m2
21:19 36 °F 18.9 °F 30.4 in Calm     49.3% 0 in 0 W/m2
21:24 36.3 °F 18.9 °F 30.4 in Calm     48.6% 0 in 0 W/m2
21:29 36.3 °F 18.5 °F 30.4 in Calm     48% 0 in 0 W/m2
21:34 36.3 °F 18.9 °F 30.4 in Calm     48.8% 0 in 0 W/m2
21:39 36.3 °F 19.2 °F 30.4 in Calm     49.8% 0 in 0 W/m2
21:44 36 °F 19 °F 30.4 in Calm     50% 0 in 0 W/m2
21:49 35.8 °F 19.8 °F 30.4 in Calm     51.6% 0 in 0 W/m2
21:54 35.8 °F 20.1 °F 30.4 in Calm     52.5% 0 in 0 W/m2
21:59 35.6 °F 20.1 °F 30.4 in Calm     53.1% 0 in 0 W/m2
22:04 34.2 °F 19.4 °F 30.4 in Calm     54.2% 0 in 0 W/m2
22:09 34.3 °F 19.4 °F 30.4 in Calm     54% 0 in 0 W/m2
22:14 34.3 °F 19.8 °F 30.4 in Calm     54.9% 0 in 0 W/m2
22:19 34.3 °F 19.6 °F 30.4 in Calm     54.3% 0 in 0 W/m2
22:24 34.7 °F 19.8 °F 30.4 in Calm     54.2% 0 in 0 W/m2
22:29 34.7 °F 19.4 °F 30.4 in Calm     53.2% 0 in 0 W/m2
22:34 34.9 °F 18.9 °F 30.4 in Calm     51.7% 0 in 0 W/m2
22:39 35.2 °F 18.7 °F 30.4 in Calm     50.7% 0 in 0 W/m2
22:44 35.8 °F 19.4 °F 30.4 in Calm     51.2% 0 in 0 W/m2
22:49 35.8 °F 19.6 °F 30.4 in Calm     51.3% 0 in 0 W/m2
22:54 35.8 °F 19.4 °F 30.4 in Calm     51% 0 in 0 W/m2
22:59 35.8 °F 19.6 °F 30.4 in Calm     51.3% 0 in 0 W/m2
23:04 36.3 °F 20.1 °F 30.4 in Calm     51.7% 0 in 0 W/m2
23:09 36.3 °F 20.1 °F 30.4 in Calm     51.3% 0 in 0 W/m2
23:14 36.1 °F 20.1 °F 30.4 in Calm     51.6% 0 in 0 W/m2
23:19 36.1 °F 19.8 °F 30.4 in Calm     51% 0 in 0 W/m2
23:24 36.3 °F 19.6 °F 30.4 in Calm     50.3% 0 in 0 W/m2
23:29 36.3 °F 19.6 °F 30.4 in Calm     50.3% 0 in 0 W/m2
23:34 36.3 °F 20.1 °F 30.4 in Calm     51.7% 0 in 0 W/m2
23:39 36.1 °F 20.7 °F 30.4 in Calm     52.8% 0 in 0 W/m2
23:44 36 °F 20.1 °F 30.4 in Calm     52% 0 in 0 W/m2
23:49 36 °F 19.9 °F 30.4 in Calm     51.8% 0 in 0 W/m2
23:54 36 °F 20.3 °F 30.4 in Calm     52.5% 0 in 0 W/m2
23:59 36 °F 20.1 °F 30.4 in Calm     52% 0 in 0 W/m2
Juneau County Weather
Compliments of Weather Underground - 2 mb